createdAt,value
2018-10-19T00:01:29.540Z,12.67
2018-10-19T00:03:58.391Z,11.97
2018-10-19T00:06:27.129Z,16.23
2018-10-19T00:08:56.919Z,13.83
2018-10-19T00:11:25.761Z,12.07
2018-10-19T00:13:54.672Z,13.60
2018-10-19T00:16:23.615Z,9.67
2018-10-19T00:18:52.871Z,19.93
2018-10-19T00:21:21.607Z,13.17
2018-10-19T00:23:50.275Z,9.90
2018-10-19T00:26:19.093Z,24.70
2018-10-19T00:28:52.192Z,24.80
2018-10-19T00:31:20.908Z,11.40
2018-10-19T00:33:49.729Z,10.87
2018-10-19T00:36:18.600Z,32.93
2018-10-19T00:38:47.371Z,13.17
2018-10-19T00:41:16.090Z,16.70
2018-10-19T00:43:44.780Z,16.73
2018-10-19T00:46:13.561Z,8.60
2018-10-19T00:48:42.260Z,15.17
2018-10-19T00:51:11.076Z,23.20
2018-10-19T00:53:40.587Z,9.57
2018-10-19T00:56:09.455Z,18.63
2018-10-19T00:58:38.289Z,15.10
2018-10-19T01:01:06.979Z,9.23
2018-10-19T01:03:35.857Z,17.10
2018-10-19T01:06:04.692Z,29.53
2018-10-19T01:08:33.313Z,19.60
2018-10-19T01:11:02.130Z,14.40
2018-10-19T01:13:30.884Z,13.60
2018-10-19T01:15:59.551Z,10.33
2018-10-19T01:18:28.155Z,15.30
2018-10-19T01:20:56.826Z,17.73
2018-10-19T01:23:25.459Z,23.37
2018-10-19T01:25:54.254Z,10.93
2018-10-19T01:28:22.979Z,22.07
2018-10-19T01:30:51.543Z,12.90
2018-10-19T01:33:20.261Z,15.63
2018-10-19T01:35:48.842Z,14.03
2018-10-19T01:38:17.666Z,11.80
2018-10-19T01:40:46.375Z,47.00
2018-10-19T01:43:15.212Z,29.03
2018-10-19T01:45:49.274Z,11.20
2018-10-19T01:48:18.062Z,17.37
2018-10-19T01:50:46.847Z,17.17
2018-10-19T01:53:15.672Z,14.87
2018-10-19T01:55:44.483Z,14.03
2018-10-19T01:58:13.419Z,31.07
2018-10-19T02:00:42.155Z,42.93
2018-10-19T02:03:10.996Z,16.80
2018-10-19T02:05:40.373Z,16.40
2018-10-19T02:08:10.441Z,24.50
2018-10-19T02:10:39.168Z,14.10
2018-10-19T02:13:08.498Z,12.20
2018-10-19T02:15:37.583Z,20.30
2018-10-19T02:18:06.256Z,23.00
2018-10-19T02:20:35.056Z,13.23
2018-10-19T02:23:03.650Z,13.47
2018-10-19T02:25:32.461Z,16.23
2018-10-19T02:28:01.294Z,15.90
2018-10-19T02:30:29.894Z,16.50
2018-10-19T02:32:58.632Z,17.73
2018-10-19T02:35:27.457Z,31.87
2018-10-19T02:37:56.239Z,19.70
2018-10-19T02:40:25.002Z,11.70
2018-10-19T02:42:53.662Z,13.60
2018-10-19T02:45:22.319Z,13.50
2018-10-19T02:47:50.846Z,11.80
2018-10-19T02:50:19.539Z,16.60
2018-10-19T02:52:48.210Z,16.30
2018-10-19T02:55:17.248Z,31.80
2018-10-19T02:57:45.889Z,14.20
2018-10-19T03:00:14.533Z,21.83
2018-10-19T03:02:43.266Z,24.13
2018-10-19T03:05:12.012Z,18.03
2018-10-19T03:07:41.162Z,18.30
2018-10-19T03:10:10.532Z,13.60
2018-10-19T03:12:39.112Z,23.10
2018-10-19T03:15:08.414Z,18.83
2018-10-19T03:17:37.210Z,20.07
2018-10-19T03:20:07.287Z,25.50
2018-10-19T03:22:36.437Z,14.83
2018-10-19T03:25:05.297Z,20.33
2018-10-19T03:27:35.001Z,18.40
2018-10-19T03:30:03.683Z,19.37
2018-10-19T03:32:32.414Z,26.73
2018-10-19T03:35:01.075Z,14.87
2018-10-19T03:37:29.657Z,48.23
2018-10-19T03:39:58.333Z,25.53
2018-10-19T03:42:26.923Z,26.47
2018-10-19T03:44:55.914Z,13.80
2018-10-19T03:47:24.642Z,32.27
2018-10-19T03:49:53.270Z,22.83
2018-10-19T03:52:22.043Z,18.53
2018-10-19T03:54:50.648Z,17.97
2018-10-19T03:57:19.485Z,25.60
2018-10-19T03:59:48.022Z,19.07
2018-10-19T04:02:16.733Z,25.40
2018-10-19T04:04:45.370Z,27.00
2018-10-19T04:07:14.305Z,59.40
2018-10-19T04:09:42.978Z,27.03
2018-10-19T04:12:11.651Z,32.93
2018-10-19T04:14:40.379Z,31.43
2018-10-19T04:17:09.251Z,28.50
2018-10-19T04:19:37.920Z,27.53
2018-10-19T04:22:06.558Z,24.93
2018-10-19T04:24:35.573Z,34.53
2018-10-19T04:27:04.380Z,30.10
2018-10-19T04:29:32.995Z,37.83
2018-10-19T04:32:01.755Z,46.87
2018-10-19T04:34:30.461Z,44.73
2018-10-19T04:37:03.428Z,46.67
2018-10-19T04:39:32.235Z,32.13
2018-10-19T04:42:01.390Z,31.30
2018-10-19T04:44:30.038Z,40.50
2018-10-19T04:46:58.754Z,33.60
2018-10-19T04:49:27.862Z,31.90
2018-10-19T04:51:56.542Z,40.37
2018-10-19T04:54:25.237Z,28.47
2018-10-19T04:56:53.996Z,30.30
2018-10-19T04:59:22.655Z,51.03
2018-10-19T05:01:51.356Z,38.93
2018-10-19T05:04:20.037Z,27.67
2018-10-19T05:06:48.872Z,48.13
2018-10-19T05:09:17.447Z,32.67
2018-10-19T05:11:46.105Z,33.33
2018-10-19T05:14:14.782Z,30.83
2018-10-19T05:16:43.407Z,37.37
2018-10-19T05:19:12.153Z,36.00
2018-10-19T05:21:40.834Z,29.93
2018-10-19T05:24:09.523Z,45.60
2018-10-19T05:26:38.172Z,58.63
2018-10-19T05:29:07.091Z,37.93
2018-10-19T05:31:35.760Z,26.60
2018-10-19T05:34:04.474Z,28.53
2018-10-19T05:36:35.900Z,31.97
2018-10-19T05:39:06.796Z,20.37
2018-10-19T05:41:35.479Z,30.77
2018-10-19T05:44:04.476Z,36.60
2018-10-19T05:46:33.232Z,33.20
2018-10-19T05:49:02.028Z,28.80
2018-10-19T05:51:30.724Z,27.23
2018-10-19T05:53:59.524Z,33.47
2018-10-19T05:56:28.282Z,29.10
2018-10-19T05:58:57.027Z,25.67
2018-10-19T06:01:25.725Z,21.50
2018-10-19T06:03:54.459Z,27.13
2018-10-19T06:06:23.241Z,40.53
2018-10-19T06:08:52.043Z,23.50
2018-10-19T06:11:20.737Z,45.03
2018-10-19T06:13:49.633Z,49.40
2018-10-19T06:16:18.487Z,31.93
2018-10-19T06:18:47.191Z,36.07
2018-10-19T06:21:16.287Z,28.77
2018-10-19T06:23:45.003Z,22.87
2018-10-19T06:26:13.833Z,25.27
2018-10-19T06:28:42.617Z,31.20
2018-10-19T06:31:11.345Z,23.10
2018-10-19T06:33:40.202Z,23.07
2018-10-19T06:36:08.883Z,28.00
2018-10-19T06:38:39.697Z,23.83
2018-10-19T06:41:08.731Z,50.77
2018-10-19T06:43:38.244Z,47.83
2018-10-19T06:46:07.029Z,40.10
2018-10-19T06:48:35.875Z,49.80
2018-10-19T06:51:04.765Z,38.87
2018-10-19T06:53:34.192Z,41.50
2018-10-19T06:56:02.976Z,36.37
2018-10-19T06:58:37.186Z,36.03
2018-10-19T07:01:06.636Z,36.60
2018-10-19T07:03:35.289Z,46.27
2018-10-19T07:06:03.991Z,43.17
2018-10-19T07:08:37.077Z,51.27
2018-10-19T07:11:07.671Z,45.50
2018-10-19T07:13:36.543Z,36.97
2018-10-19T07:16:05.486Z,55.93
2018-10-19T07:18:34.699Z,38.03
2018-10-19T07:21:04.012Z,40.43
2018-10-19T07:23:33.691Z,41.73
2018-10-19T07:26:37.323Z,59.53
2018-10-19T07:29:10.699Z,42.40
2018-10-19T07:31:40.123Z,45.63
2018-10-19T07:34:14.958Z,51.23
2018-10-19T07:36:43.924Z,56.70
2018-10-19T07:39:13.035Z,56.47
2018-10-19T07:41:43.270Z,58.20
2018-10-19T07:44:12.023Z,56.87
2018-10-19T07:46:40.992Z,60.00
2018-10-19T07:49:10.208Z,51.57
2018-10-19T07:51:46.846Z,54.67
2018-10-19T07:54:15.676Z,64.00
2018-10-19T07:56:44.542Z,62.00
2018-10-19T07:59:13.840Z,53.17
2018-10-19T08:01:43.112Z,47.57
2018-10-19T08:04:12.328Z,48.30
2018-10-19T08:06:41.063Z,45.40
2018-10-19T08:09:11.161Z,64.13
2018-10-19T08:11:43.473Z,51.20
2018-10-19T08:14:12.711Z,56.50
2018-10-19T08:16:41.630Z,57.70
2018-10-19T08:19:10.497Z,58.80
2018-10-19T08:21:40.417Z,61.50
2018-10-19T08:24:09.252Z,43.87
2018-10-19T08:26:38.133Z,49.90
2018-10-19T08:29:07.350Z,46.83
2018-10-19T08:31:37.250Z,54.03
2018-10-19T08:34:06.391Z,52.40
2018-10-19T08:36:35.236Z,50.20
2018-10-19T08:39:04.995Z,50.60
2018-10-19T08:41:35.060Z,44.17
2018-10-19T08:44:03.939Z,41.60
2018-10-19T08:46:38.174Z,55.90
2018-10-19T08:49:09.185Z,46.10
2018-10-19T08:51:47.068Z,48.00
2018-10-19T08:54:16.152Z,41.33
2018-10-19T08:56:45.073Z,38.03
2018-10-19T08:59:14.234Z,35.43
2018-10-19T09:01:43.574Z,37.77
2018-10-19T09:04:12.839Z,35.27
2018-10-19T09:06:42.029Z,40.03
2018-10-19T09:09:11.677Z,30.27
2018-10-19T09:11:48.559Z,31.30
2018-10-19T09:14:28.416Z,50.23
2018-10-19T09:16:57.469Z,53.67
2018-10-19T09:19:26.736Z,50.87
2018-10-19T09:22:01.033Z,40.10
2018-10-19T09:24:29.870Z,44.07
2018-10-19T09:26:59.083Z,34.40
2018-10-19T09:29:28.085Z,43.90
2018-10-19T09:31:58.118Z,46.03
2018-10-19T09:34:27.067Z,23.47
2018-10-19T09:36:55.965Z,23.27
2018-10-19T09:39:25.128Z,20.50
2018-10-19T09:42:01.946Z,23.20
2018-10-19T09:44:30.753Z,17.10
2018-10-19T09:46:59.634Z,20.77
2018-10-19T09:49:28.402Z,35.50
2018-10-19T09:51:57.610Z,20.07
2018-10-19T09:54:26.517Z,26.53
2018-10-19T09:56:55.374Z,21.33
2018-10-19T09:59:25.602Z,22.40
2018-10-19T10:02:02.259Z,22.60
2018-10-19T10:04:31.294Z,23.77
2018-10-19T10:07:00.601Z,39.27
2018-10-19T10:09:29.690Z,15.60
2018-10-19T10:11:58.616Z,14.93
2018-10-19T10:14:27.613Z,18.90
2018-10-19T10:16:56.519Z,18.23
2018-10-19T10:19:25.908Z,13.60
2018-10-19T10:22:02.396Z,14.50
2018-10-19T10:24:31.251Z,13.23
2018-10-19T10:27:00.329Z,27.13
2018-10-19T10:29:29.900Z,30.50
2018-10-19T10:32:06.325Z,18.07
2018-10-19T10:34:35.860Z,21.27
2018-10-19T10:37:04.570Z,40.47
2018-10-19T10:39:33.370Z,12.93
2018-10-19T10:42:03.200Z,18.17
2018-10-19T10:44:31.931Z,14.17
2018-10-19T10:47:00.844Z,13.43
2018-10-19T10:49:29.772Z,11.60
2018-10-19T10:52:06.443Z,30.87
2018-10-19T10:54:35.134Z,14.73
2018-10-19T10:57:03.884Z,9.53
2018-10-19T10:59:32.639Z,38.07
2018-10-19T11:02:02.569Z,13.30
2018-10-19T11:04:31.571Z,9.67
2018-10-19T11:07:01.285Z,8.40
2018-10-19T11:09:29.923Z,10.53
2018-10-19T11:12:06.659Z,10.93
2018-10-19T11:14:35.521Z,14.23
2018-10-19T11:17:04.557Z,9.70
2018-10-19T11:19:33.970Z,10.30
2018-10-19T11:22:03.144Z,15.93
2018-10-19T11:24:31.839Z,12.50
2018-10-19T11:27:00.855Z,8.47
2018-10-19T11:29:29.590Z,10.60
2018-10-19T11:32:12.270Z,12.37
2018-10-19T11:34:41.140Z,6.27
2018-10-19T11:37:10.407Z,13.20
2018-10-19T11:39:51.955Z,9.83
2018-10-19T11:42:28.202Z,13.13
2018-10-19T11:44:57.364Z,16.60
2018-10-19T11:47:26.155Z,5.60
2018-10-19T11:49:55.129Z,4.83
2018-10-19T11:52:25.997Z,5.63
2018-10-19T11:54:54.791Z,8.53
2018-10-19T11:57:23.677Z,5.30
2018-10-19T11:59:52.439Z,6.43
2018-10-19T12:02:21.779Z,9.30
2018-10-19T12:04:50.625Z,13.20
2018-10-19T12:07:19.403Z,5.33
2018-10-19T12:09:48.104Z,7.60
2018-10-19T12:12:20.887Z,8.33
2018-10-19T12:14:49.753Z,4.90
2018-10-19T12:17:18.976Z,5.43
2018-10-19T12:19:48.174Z,7.73
2018-10-19T12:22:17.249Z,4.60
2018-10-19T12:24:46.237Z,6.07
2018-10-19T12:27:15.171Z,6.57
2018-10-19T12:29:43.862Z,14.90
2018-10-19T12:32:20.156Z,6.43
2018-10-19T12:34:49.200Z,9.27
2018-10-19T12:37:18.794Z,6.07
2018-10-19T12:39:48.172Z,4.80
2018-10-19T12:42:17.096Z,6.37
2018-10-19T12:44:46.076Z,5.33
2018-10-19T12:47:32.122Z,4.90
2018-10-19T12:50:01.221Z,8.83
2018-10-19T12:52:37.809Z,7.30
2018-10-19T12:55:08.327Z,22.63
2018-10-19T12:57:37.477Z,6.63
2018-10-19T13:00:07.595Z,6.50
2018-10-19T13:02:44.034Z,10.43
2018-10-19T13:05:13.066Z,5.83
2018-10-19T13:07:41.829Z,20.77
2018-10-19T13:10:11.206Z,4.10
2018-10-19T13:12:47.376Z,4.97
2018-10-19T13:15:17.050Z,5.37
2018-10-19T13:17:45.848Z,5.17
2018-10-19T13:20:15.084Z,6.27
2018-10-19T13:22:44.346Z,7.80
2018-10-19T13:25:13.128Z,10.60
2018-10-19T13:27:41.915Z,7.17
2018-10-19T13:30:10.717Z,13.90
2018-10-19T13:32:42.756Z,5.20
2018-10-19T13:35:11.884Z,5.80
2018-10-19T13:37:40.805Z,5.17
2018-10-19T13:40:09.784Z,5.43
2018-10-19T13:42:38.714Z,5.07
2018-10-19T13:45:07.485Z,10.60
2018-10-19T13:47:36.757Z,5.00
2018-10-19T13:50:05.816Z,4.90
2018-10-19T13:52:44.156Z,5.13
2018-10-19T13:55:13.144Z,10.83
2018-10-19T13:57:42.255Z,4.97
2018-10-19T14:00:11.031Z,7.97
2018-10-19T14:02:43.279Z,12.63
2018-10-19T14:05:12.619Z,7.23
2018-10-19T14:07:41.687Z,6.50
2018-10-19T14:10:11.453Z,10.53
2018-10-19T14:13:07.679Z,6.73
2018-10-19T14:15:36.728Z,7.43
2018-10-19T14:18:06.135Z,6.83
2018-10-19T14:20:35.145Z,5.73
2018-10-19T14:23:04.090Z,5.77
2018-10-19T14:25:33.166Z,6.10
2018-10-19T14:28:02.270Z,30.33
2018-10-19T14:30:31.278Z,6.00
2018-10-19T14:33:01.868Z,10.37
2018-10-19T14:35:30.703Z,6.20
2018-10-19T14:37:59.860Z,4.93
2018-10-19T14:40:29.772Z,18.20
2018-10-19T14:43:06.342Z,8.63
2018-10-19T14:45:35.822Z,5.63
2018-10-19T14:48:04.715Z,9.30
2018-10-19T14:50:33.593Z,6.47
2018-10-19T14:53:16.372Z,7.00
2018-10-19T14:55:45.185Z,8.43
2018-10-19T14:58:13.966Z,18.53
2018-10-19T15:00:44.430Z,6.37
2018-10-19T15:03:21.324Z,5.30
2018-10-19T15:05:50.819Z,11.83
2018-10-19T15:08:19.565Z,13.70
2018-10-19T15:10:48.611Z,4.53
2018-10-19T15:13:17.446Z,8.13
2018-10-19T15:15:47.052Z,5.30
2018-10-19T15:18:15.857Z,6.20
2018-10-19T15:20:44.832Z,12.30
2018-10-19T15:23:22.590Z,16.30
2018-10-19T15:25:51.759Z,6.97
2018-10-19T15:28:20.755Z,5.00
2018-10-19T15:30:49.533Z,4.70
2018-10-19T15:33:25.529Z,9.83
2018-10-19T15:35:54.701Z,5.13
2018-10-19T15:38:23.496Z,22.90
2018-10-19T15:40:52.520Z,17.63
2018-10-19T15:43:22.301Z,5.77
2018-10-19T15:45:51.132Z,4.50
2018-10-19T15:48:20.876Z,7.47
2018-10-19T15:50:50.289Z,5.63
2018-10-19T15:53:19.438Z,6.77
2018-10-19T15:55:48.261Z,12.83
2018-10-19T15:58:17.164Z,5.80
2018-10-19T16:00:46.465Z,3.83
2018-10-19T16:03:15.422Z,5.53
2018-10-19T16:05:44.159Z,8.47
2018-10-19T16:08:12.959Z,4.97
2018-10-19T16:10:41.812Z,4.53
2018-10-19T16:13:10.629Z,4.37
2018-10-19T16:15:39.470Z,5.20
2018-10-19T16:18:08.355Z,6.57
2018-10-19T16:20:37.246Z,5.90
2018-10-19T16:23:14.750Z,5.40
2018-10-19T16:25:43.826Z,18.73
2018-10-19T16:28:12.848Z,7.57
2018-10-19T16:30:41.668Z,4.73
2018-10-19T16:33:21.167Z,4.00
2018-10-19T16:35:50.318Z,9.37
2018-10-19T16:38:19.085Z,7.60
2018-10-19T16:40:48.240Z,4.50
2018-10-19T16:43:24.630Z,5.70
2018-10-19T16:45:53.642Z,4.70
2018-10-19T16:48:23.411Z,5.47
2018-10-19T16:50:52.851Z,5.67
2018-10-19T16:53:21.618Z,4.53
2018-10-19T16:55:50.387Z,4.93
2018-10-19T16:58:19.463Z,5.90
2018-10-19T17:00:48.343Z,6.37
2018-10-19T17:03:20.919Z,4.87
2018-10-19T17:05:50.140Z,7.33
2018-10-19T17:08:18.976Z,5.80
2018-10-19T17:10:48.525Z,9.63
2018-10-19T17:13:23.436Z,5.33
2018-10-19T17:15:52.320Z,9.00
2018-10-19T17:18:21.358Z,12.93
2018-10-19T17:20:50.401Z,6.83
2018-10-19T17:23:32.993Z,10.30
2018-10-19T17:26:02.054Z,7.73
2018-10-19T17:28:44.952Z,8.03
2018-10-19T17:31:29.900Z,13.00
2018-10-19T17:34:15.650Z,7.77
2018-10-19T17:36:55.220Z,6.13
2018-10-19T17:39:24.862Z,11.03
2018-10-19T17:42:06.235Z,8.83
2018-10-19T17:52:13.449Z,16.93
2018-10-19T17:55:01.940Z,9.03
2018-10-19T17:57:32.365Z,13.50
2018-10-19T18:00:12.182Z,11.10
2018-10-19T18:02:41.443Z,11.33
2018-10-19T18:05:17.250Z,17.70
2018-10-19T18:07:47.078Z,34.27
2018-10-19T18:10:17.926Z,15.57
2018-10-19T18:12:47.372Z,26.00
2018-10-19T18:15:22.401Z,14.40
2018-10-19T18:17:51.719Z,16.17
2018-10-19T18:20:20.888Z,23.60
2018-10-19T18:22:50.311Z,30.60
2018-10-19T18:25:30.671Z,12.30
2018-10-19T18:27:59.863Z,18.00
2018-10-19T18:30:29.237Z,8.33
2018-10-19T18:32:58.432Z,11.73
2018-10-19T18:35:37.079Z,20.17
2018-10-19T18:38:08.191Z,20.43
2018-10-19T18:40:37.580Z,19.33
2018-10-19T18:43:06.842Z,24.87
2018-10-19T18:45:36.015Z,18.83
2018-10-19T18:48:05.467Z,18.17
2018-10-19T18:50:34.593Z,16.80
2018-10-19T18:53:03.622Z,12.00
2018-10-19T18:55:32.795Z,12.43
2018-10-19T18:58:06.645Z,16.70
2018-10-19T19:00:35.948Z,19.63
2018-10-19T19:03:04.909Z,12.80
2018-10-19T19:05:33.835Z,13.70
2018-10-19T19:08:03.275Z,10.83
2018-10-19T19:10:32.592Z,10.37
2018-10-19T19:13:06.693Z,12.50
2018-10-19T19:15:35.756Z,12.40
2018-10-19T19:18:04.971Z,9.63
2018-10-19T19:20:34.423Z,23.23
2018-10-19T19:23:03.657Z,15.43
2018-10-19T19:25:37.929Z,17.37
2018-10-19T19:28:07.550Z,18.53
2018-10-19T19:30:36.659Z,14.27
2018-10-19T19:33:11.379Z,21.13
2018-10-19T19:35:40.399Z,15.73
2018-10-19T19:38:09.555Z,11.60
2018-10-19T19:40:43.595Z,12.43
2018-10-19T19:43:12.568Z,40.67
2018-10-19T19:45:41.885Z,14.60
2018-10-19T19:48:16.016Z,20.33
2018-10-19T19:50:45.400Z,18.70
2018-10-19T19:53:14.710Z,15.63
2018-10-19T19:55:43.820Z,14.10
2018-10-19T19:58:13.128Z,14.27
2018-10-19T20:00:42.355Z,21.87
2018-10-19T20:03:11.936Z,13.80
2018-10-19T20:05:41.048Z,16.73
2018-10-19T20:08:10.700Z,28.93
2018-10-19T20:10:39.788Z,24.87
2018-10-19T20:13:08.809Z,18.27
2018-10-19T20:15:40.196Z,16.83
2018-10-19T20:18:09.517Z,16.33
2018-10-19T20:20:38.664Z,10.73
2018-10-19T20:23:08.215Z,22.30
2018-10-19T20:25:37.247Z,12.90
2018-10-19T20:28:06.445Z,18.87
2018-10-19T20:30:35.689Z,21.97
2018-10-19T20:33:05.221Z,10.50
2018-10-19T20:35:34.590Z,18.73
2018-10-19T20:38:03.679Z,15.07
2018-10-19T20:40:33.004Z,16.43
2018-10-19T20:43:02.244Z,19.43
2018-10-19T20:45:35.505Z,17.20
2018-10-19T20:48:04.651Z,36.17
2018-10-19T20:50:33.936Z,32.77
2018-10-19T20:53:03.061Z,20.30
2018-10-19T20:55:32.180Z,23.53
2018-10-19T20:58:01.229Z,19.97
2018-10-19T21:00:30.267Z,14.80
2018-10-19T21:02:59.332Z,23.63
2018-10-19T21:05:28.750Z,24.20
2018-10-19T21:07:58.030Z,25.50
2018-10-19T21:10:27.194Z,13.90
2018-10-19T21:12:56.333Z,13.23
2018-10-19T21:15:25.408Z,33.47
2018-10-19T21:17:54.608Z,39.73
2018-10-19T21:20:23.677Z,35.70
2018-10-19T21:22:52.700Z,25.77
2018-10-19T21:25:21.721Z,15.10
2018-10-19T21:27:50.709Z,24.33
2018-10-19T21:30:19.779Z,19.57
2018-10-19T21:32:48.815Z,16.13
2018-10-19T21:35:18.252Z,16.17
2018-10-19T21:37:47.431Z,29.10
2018-10-19T21:40:16.669Z,54.47
2018-10-19T21:42:52.787Z,18.47
2018-10-19T21:45:21.751Z,34.47
2018-10-19T21:47:50.757Z,27.60
2018-10-19T21:50:22.713Z,39.87
2018-10-19T21:52:53.225Z,26.77
2018-10-19T21:55:22.307Z,19.30
2018-10-19T21:57:51.515Z,21.27
2018-10-19T22:00:20.692Z,17.80
2018-10-19T22:02:49.767Z,34.13
2018-10-19T22:05:19.101Z,18.33
2018-10-19T22:07:48.069Z,21.57
2018-10-19T22:10:17.063Z,28.10
2018-10-19T22:12:46.203Z,20.10
2018-10-19T22:15:15.171Z,17.47
2018-10-19T22:17:44.198Z,30.63
2018-10-19T22:20:13.609Z,27.57
2018-10-19T22:22:43.019Z,38.27
2018-10-19T22:25:12.047Z,20.30
2018-10-19T22:27:41.373Z,17.17
2018-10-19T22:30:10.426Z,46.27
2018-10-19T22:32:39.849Z,54.47
2018-10-19T22:35:09.758Z,40.00
2018-10-19T22:37:39.411Z,22.27
2018-10-19T22:40:08.373Z,32.63
2018-10-19T22:42:37.456Z,41.37
2018-10-19T22:45:06.682Z,26.57
2018-10-19T22:47:36.085Z,68.43
2018-10-19T22:50:05.272Z,38.50
2018-10-19T22:52:34.364Z,35.53
2018-10-19T22:55:03.791Z,35.13
2018-10-19T22:57:32.699Z,31.97
2018-10-19T23:00:01.896Z,29.23
2018-10-19T23:02:31.253Z,36.23
2018-10-19T23:05:00.412Z,36.67
2018-10-19T23:07:29.624Z,28.77
2018-10-19T23:09:59.065Z,46.23
2018-10-19T23:12:28.096Z,56.07
2018-10-19T23:15:00.148Z,25.00
2018-10-19T23:17:29.488Z,28.27
2018-10-19T23:19:58.731Z,28.90
2018-10-19T23:22:27.804Z,34.23
2018-10-19T23:24:57.174Z,36.23
2018-10-19T23:27:26.109Z,35.33
2018-10-19T23:29:55.599Z,30.47
2018-10-19T23:32:24.611Z,23.27
2018-10-19T23:34:53.574Z,30.60
2018-10-19T23:37:22.832Z,29.90
2018-10-19T23:39:52.051Z,29.23
2018-10-19T23:42:21.249Z,34.33
2018-10-19T23:44:50.451Z,27.47
2018-10-19T23:47:19.501Z,26.60
2018-10-19T23:49:48.455Z,47.63
2018-10-19T23:52:18.250Z,41.43
2018-10-19T23:54:47.216Z,43.50
2018-10-19T23:57:16.447Z,52.13
2018-10-19T23:59:45.927Z,41.53
